Hlavní strana
METAR-TAF:

METAR-TAF

Letiště :

Oakdale, Louisiana, Spojené státy americké

zeměpisná šířka: 30-45-02N, zeměpisná délka: 092-41-19W, výška: 33 m

Aktuální stav počasí

Zpráva byla vytvořena před 14 minutami, v 12:15 UTC
Bezvětří
Teplota 23°C
Vlhkost vzduchu 94%
Tlak 1014 hPa
Zataženo ve výšce 300 ft
mlha

METAR: KACP 041215Z AUTO 00000KT M1/4SM FG OVC003 23/22 A2993 RMK AO2

Čas: 07:29 (12:29 UTC)


TAF: chybějící

Stav a předpovědi počasí z více než 4 000 letišť (zprávy METAR a TAF).

Červené a žluté tečky na mapě představují dostupné meteorologické stanice.

Když kurzor umístíte na tečku, zobrazí se název stanice.

Pak kliknutím zobrazíte stav a předpověď počasí.

Chcete-li změnit mapu, kliknutím na zelené tlačítko se znaménkem +mapu přiblížíte, kliknutím na zelené tlačítko se znaménkem – mapu oddálíte a kliknutím na zelené šipky přejdete na sousední mapy.


METAR-TAF: